x

Neah Bay, - 6nm North Of Cape Flattery, Wa (traffic Separation Lighted Buoy) (46087) Wave Buoy

3:20pm - Sun 14th Feb 2016 All times are PST. -8 hours from GMT.

  • Sig Wave height 7.9ft
  • Swell Direction
  • Peak Period 11s
  • Average Period 8s
  • Wind
    16mph, 18mph gusts
  • Sea Temp 51°f
  • Air Temp 51°f
  • Sea Pressure 1020.3mb
  • Neah Bay, - 6nm North Of Cape Flattery, Wa     (traffic Separation Lighted Buoy)
  • Neah Bay, - 6nm North Of Cape Flattery, Wa     (traffic Separation Lighted Buoy)

More Historic Weather Station data

Upgrade to MSW Pro to gain access to the past 30 days of data for over 8000 Wavebouys and Weather Stations around the globe.

Join Pro

Comparision Forecast

View Surf forecast
   
Sun 02/14 3:20pm 8ft 11s 8s 16 18 mph 1020.3mb 51f 51f
2:50pm 8ft 10s 8s 13 16 mph 1019.3mb 51f 51f
2:20pm 7.5ft 11s 8s 13 16 mph 1019.4mb 51f 51f
1:50pm 8ft 11s 8s 13 18 mph 1019.2mb 51f 51f
1:20pm 8ft 11s 8s 13 16 mph 1019.1mb 51f 51f
12:50pm 7.5ft 11s 8s 16 18 mph 1018.8mb 51f 51f
12:20pm 7ft 12s 8s 16 20 mph 1018.7mb 51f 51f
11:50am 7ft 10s 8s 13 18 mph 1018.3mb 51f 51f
11:20am 7ft 11s 8s 16 18 mph 1018.2mb 51f 51f
10:50am 8ft 11s 8s 16 18 mph 1018.1mb 51f 51f
10:20am 8ft 12s 9s 20 25 mph 1017.4mb 51f 51f
9:50am 8ft 12s 8s 11 16 mph 1017.6mb 51f 49f
9:20am 7ft 12s 8s 11 16 mph 1017.6mb 51f 49f
8:50am 7ft 11s 9s 11 16 mph 1017.5mb 51f 49f
8:20am 8ft 11s 9s 11 13 mph 1017.4mb 51f 49f
7:50am 8ft 11s 9s 9 11 mph 1017.7mb 51f 49f
7:20am 8ft 12s 9s 9 11 mph 1018mb 51f 49f
6:50am 8.5ft 12s 9s 9 11 mph 1018.1mb 51f 49f
6:20am 8ft 11s 9s 7 9 mph 1017.9mb 51f 49f
5:50am 8ft 11s 9s 2 7 mph 1018.2mb 51f 49f
5:20am 9.5ft 11s 9s 7 9 mph 1017.6mb 51f 49f
4:50am 9.5ft 12s 9s 9 13 mph 1017.6mb 51f 50f
4:20am 9ft 11s 9s 9 11 mph 1017.6mb 51f 50f
3:50am 9ft 10s 9s 7 9 mph 1017.9mb 51f 50f
3:20am 9ft 12s 9s 4 7 mph 1018.3mb 51f 50f
2:50am 9.5ft 12s 9s 2 4 mph 1018.7mb 51f 50f
2:20am 9ft 11s 9s 4 7 mph 1018.9mb 51f 50f
1:50am 10ft 10s 9s 7 11 mph 1018.8mb 51f 50f
1:20am 8ft 13s 9s 4 7 mph 1018.4mb 51f 50f
12:50am 7.5ft 10s 9s 7 9 mph 1018.7mb 51f 50f
12:20am 7.5ft 12s 9s 9 11 mph 1018.8mb 51f 50f
Sat 02/13 11:50pm 7ft 11s 9s 11 13 mph 1018.5mb 51f 50f
11:20pm 8ft 12s 9s 4 7 mph 1017.9mb 51f 48f
10:50pm 8ft 10s 9s 7 9 mph 1017.3mb 51f 48f
10:20pm 8ft 14s 9s 7 9 mph 1016.6mb 51f 48f
9:50pm 10ft 14s 9s 9 11 mph 1016.4mb 50f 47f
9:20pm 10.5ft 9s 8s 9 11 mph 1016.3mb 50f 47f
8:50pm 11.5ft 11s 8s 11 16 mph 1016.1mb 50f 47f
8:20pm 12ft 11s 9s 13 18 mph 1015.6mb 50f 47f
7:50pm 10.5ft 11s 8s 13 20 mph 1015.2mb 50f 46f
7:20pm 11ft 10s 8s 18 22 mph 1014.5mb 50f 46f
6:50pm 10ft 10s 7s 16 20 mph 1014.8mb 50f 46f
6:20pm 11.5ft 9s 8s 18 25 mph 1014.1mb 50f 46f
5:50pm 11ft 10s 7s 18 22 mph 1013.9mb 50f 46f
5:20pm 11ft 13s 7s 25 31 mph 1013.2mb 50f 46f
4:50pm 11ft 15s 8s 20 27 mph 1013.4mb 51f 45f
4:20pm 10ft 14s 7s 27 34 mph 1013.2mb 51f 45f
3:50pm 10ft 10s 7s 27 34 mph 1013.2mb 51f 46f
3:20pm 10.5ft 10s 8s 29 36 mph 1014mb 51f 46f
2:50pm 10.5ft 14s 8s 27 36 mph 1014.7mb 51f 47f
2:20pm 11ft 11s 8s 22 31 mph 1016.1mb 51f 47f
1:50pm 10.5ft 11s 8s 22 31 mph 1017.3mb 51f 48f
1:20pm 10ft 11s 8s 18 22 mph 1018.6mb 51f 47f
12:50pm 9ft 15s 8s 25 34 mph 1019.2mb 51f 48f
12:20pm 8ft 10s 8s 20 22 mph 1020.1mb 51f 48f
11:50am 9ft 14s 9s 20 25 mph 1020.2mb 51f 48f
11:20am 9ft 14s 9s 20 29 mph 1020mb 51f 48f
10:50am 8.5ft 12s 8s 18 22 mph 1020.1mb 51f 48f
10:20am 7ft 16s 9s 18 22 mph 1020.3mb 51f 48f
9:50am 6.5ft 14s 9s 18 22 mph 1021.1mb 51f 49f
9:20am 7.5ft 14s 9s 18 22 mph 1021.4mb 51f 49f
8:50am 8.5ft 14s 9s 16 20 mph 1021.9mb 51f 49f
8:20am 7.5ft 15s 8s 13 18 mph 1022.2mb 51f 49f
7:50am 8ft 11s 8s 13 18 mph 1022.2mb 51f 49f
7:20am 8ft 15s 8s 13 16 mph 1021.7mb 51f 49f
6:50am 8ft 15s 8s 11 18 mph 1021.5mb 51f 49f
6:20am 8.5ft 14s 8s 16 22 mph 1022mb 51f 48f
5:50am 8.5ft 15s 8s 13 18 mph 1022.1mb 51f 50f
5:20am 9ft 16s 8s 16 20 mph 1021.9mb 51f 49f
4:50am 9ft 14s 8s 18 20 mph 1021.5mb 51f 49f
4:20am 10ft 13s 8s 18 22 mph 1021.2mb 51f 49f
3:50am 10ft 12s 8s 16 22 mph 1021.3mb 51f 49f
3:20am 9ft 16s 7s 16 22 mph 1021.1mb 51f 49f
2:50am 10ft 13s 8s 13 16 mph 1020.9mb 51f 48f
2:20am 9ft 11s 8s 20 27 mph 1020.3mb 51f 49f
1:50am 8.5ft 13s 8s 20 22 mph 1020mb 51f 49f
1:20am 8.5ft 14s 8s 16 18 mph 1019.7mb 51f 48f
12:50am 8ft 11s 9s 11 18 mph 1019.4mb 51f 49f
12:20am 8ft 15s 9s 2 4 mph 1019.8mb 51f 47f
Fri 02/12 11:50pm 8ft 15s 9s 4 11 mph 1019.8mb 51f 46f
11:20pm 8ft 15s 9s 18 25 mph 1019.3mb 51f 49f
10:50pm 7ft 16s 8s 18 22 mph 1018.9mb 51f 49f
10:20pm 7.5ft 16s 9s 22 29 mph 1018.7mb 51f 48f
9:50pm 7.5ft 12s 9s 18 20 mph 1018.5mb 51f 51f
9:20pm 7ft 14s 9s 16 20 mph 1018.7mb 51f 51f
8:50pm 7.5ft 14s 10s 18 20 mph 1018.8mb 51f 51f
8:20pm 8ft 14s 9s 16 20 mph 1019mb 51f 51f
7:50pm 9ft 15s 10s 13 16 mph 1019.5mb 51f 51f
7:20pm 9ft 15s 10s 16 20 mph 1019.3mb 51f 51f
6:50pm 9ft 15s 10s 16 20 mph 1019.3mb 51f 51f
6:20pm 9ft 12s 9s 13 16 mph 1019.1mb 51f 51f
5:50pm 9.5ft 13s 9s 13 16 mph 1018.7mb 51f 51f
5:20pm 9ft 13s 9s 16 20 mph 1018.6mb 51f 51f
4:50pm 9.5ft 14s 8s 16 20 mph 1018.6mb 51f 52f
4:20pm 10ft 15s 9s 18 22 mph 1018.4mb 51f 52f
3:50pm 11ft 15s 9s 13 18 mph 1018.5mb 51f 50f
3:20pm 9.5ft 13s 9s 18 25 mph 1018.2mb 51f 51f
2:50pm 11ft 14s 9s 20 25 mph 1017.6mb 51f 52f
2:20pm 8.5ft 16s 9s 16 20 mph 1017.8mb 51f 51f
1:50pm 9.5ft 16s 9s 16 18 mph 1017.9mb 51f 51f
1:20pm 9.5ft 16s 9s 13 18 mph 1018mb 51f 52f
12:50pm 9ft 16s 10s 13 18 mph 1018.1mb 51f 52f
12:20pm 8.5ft 16s 10s 13 18 mph 1018.3mb 51f 52f
11:50am 8ft 13s 10s 16 20 mph 1018.3mb 51f 52f
11:20am 8ft 16s 10s 16 18 mph 1018.1mb 51f 52f
10:50am 8.5ft 16s 10s 11 13 mph 1018.2mb 51f 52f
10:20am 8ft 16s 10s 13 16 mph 1017.7mb 51f 52f
9:50am 7.5ft 12s 9s 16 18 mph 1017.3mb 51f 52f
9:20am 8.5ft 15s 9s 16 18 mph 1017.2mb 51f 52f
8:50am 7ft 16s 9s 18 20 mph 1017mb 51f 51f
8:20am 8ft 15s 10s 13 16 mph 1016.4mb 51f 52f
7:50am 8ft 16s 9s 16 18 mph 1016.2mb 51f 52f
7:20am 8ft 15s 9s 16 20 mph 1015.8mb 51f 52f
6:50am 9ft 12s 9s 20 25 mph 1015.4mb 50f 52f
6:20am 8ft 16s 9s 20 27 mph 1015.3mb 50f 53f
5:50am 8.5ft 13s 8s 22 25 mph 1015.5mb 50f 52f
5:20am 9ft 16s 8s 20 25 mph 1015.4mb 50f 53f
4:50am 9ft 14s 8s 22 27 mph 1015.3mb 50f 53f
4:20am 10ft 12s 8s 20 27 mph 1015.2mb 49f 53f
3:50am 10ft 16s 8s 16 22 mph 1015.6mb 49f 53f
3:20am 9ft 16s 8s 9 11 mph 1015.6mb 49f 50f
2:50am 10ft 15s 8s 11 16 mph 1015.6mb 49f 50f
2:20am 10ft 15s 8s 16 22 mph 1015.6mb 49f 49f
1:50am 9.5ft 11s 8s 18 25 mph 1015.6mb 49f 49f
1:20am 9.5ft 12s 9s 20 29 mph 1015.3mb 49f 49f
12:50am 10ft 13s 9s 18 25 mph 1015.4mb 49f 49f
12:20am 10ft 13s 10s 18 25 mph 1015.7mb 49f 49f
Thu 02/11 11:50pm 9ft 14s 10s 16 20 mph 1015.8mb 49f 48f
11:20pm 9ft 13s 10s 13 18 mph 1016.1mb 49f 48f
10:50pm 9ft 14s 10s 16 20 mph 1016mb 49f 48f
10:20pm 10ft 13s 10s 18 25 mph 1016mb 50f 48f
9:50pm 8ft 13s 9s 18 22 mph 1016.2mb 50f 48f
9:20pm 9ft 12s 9s 20 27 mph 1016.2mb 50f 48f
8:50pm 9ft 14s 9s 16 20 mph 1016.6mb 50f 48f
8:20pm 8ft 13s 9s 20 25 mph 1016.4mb 50f 48f
7:50pm 8ft 17s 8s 20 25 mph 1016.5mb 50f 48f
7:20pm 8ft 19s 8s 22 25 mph 1016.6mb 50f 48f
6:50pm 7ft 17s 8s 22 27 mph 1016.7mb 50f 48f
6:20pm 8ft 17s 8s 22 27 mph 1016.4mb 49f 48f
5:50pm 8ft 17s 8s 25 31 mph 1016.2mb 49f 48f
5:20pm 7.5ft 12s 8s 25 29 mph 1016.2mb 49f 48f
4:50pm 7.5ft 19s 8s 22 29 mph 1016.4mb 49f 48f
4:20pm 8ft 11s 8s 22 29 mph 1016.3mb 49f 48f
3:50pm 8ft 11s 8s 25 29 mph 1016.3mb 49f 47f
3:20pm 7.5ft 19s 8s 25 31 mph 1016.3mb 49f 48f
2:50pm 7.5ft 19s 8s 25 31 mph 1016.5mb 49f 48f
2:20pm 7ft 10s 8s 25 31 mph 1016.8mb 49f 48f
1:50pm 7ft 11s 8s 25 27 mph 1017.4mb 49f 48f
12:50pm 7ft 11s 8s 25 29 mph 1017.7mb 49f 49f
12:20pm 7.5ft 19s 7s 22 29 mph 1018mb 50f 49f
11:50am 7ft 17s 8s 27 31 mph 1018.1mb 50f 49f
11:20am 7.5ft 19s 8s 25 29 mph 1018.7mb 50f 49f
10:50am 7ft 19s 8s 25 29 mph 1018.8mb 50f 49f
10:20am 6ft 19s 7s 22 27 mph 1018.7mb 50f 49f
9:50am 6ft 19s 7s 22 27 mph 1019.3mb 50f 49f
9:20am 6ft 19s 8s 20 25 mph 1020mb 50f 49f
8:50am 7ft 19s 8s 20 25 mph 1020.1mb 50f 49f
8:20am 6ft 19s 8s 22 25 mph 1020.1mb 50f 50f
7:50am 5.5ft 19s 8s 22 27 mph 1020mb 50f 50f
7:20am 5.5ft 11s 8s 20 25 mph 1020.4mb 50f 50f
6:50am 5.5ft 19s 8s 20 25 mph 1020.6mb 50f 50f
5:50am 6ft 11s 9s 16 18 mph 1021.4mb 48f 49f
4:50am 8ft 11s 8s 16 18 mph 1021.7mb 48f 48f
4:20am 7ft 11s 8s 18 25 mph 1021.7mb 48f 48f
3:50am 8.5ft 10s 8s 18 22 mph 1021.8mb 48f 48f
3:20am 9ft 10s 8s 18 22 mph 1022.2mb 48f 49f
2:50am 8.5ft 11s 8s 18 22 mph 1022.4mb 48f 48f
2:20am 8ft 10s 8s 16 22 mph 1022.7mb 48f 49f
1:50am 10ft 10s 8s 16 20 mph 1022.7mb 48f 48f
1:20am 8.5ft 10s 8s 13 16 mph 1023.3mb 48f 48f
12:50am 8.5ft 10s 8s 16 20 mph 1023.9mb 48f 48f
12:20am 8ft 8s 8s 16 20 mph 1024.2mb 49f 49f